createdAt,value
2018-06-22T00:01:04.780Z,89.06
2018-06-22T00:03:34.626Z,88.60
2018-06-22T00:06:04.426Z,88.45
2018-06-22T00:08:34.393Z,88.90
2018-06-22T00:11:04.072Z,89.34
2018-06-22T00:13:33.834Z,88.30
2018-06-22T00:16:03.422Z,88.82
2018-06-22T00:18:33.014Z,89.38
2018-06-22T00:21:02.524Z,89.18
2018-06-22T00:23:32.173Z,89.29
2018-06-22T00:26:01.733Z,88.74
2018-06-22T00:28:31.336Z,88.14
2018-06-22T00:31:01.044Z,88.99
2018-06-22T00:33:30.722Z,89.97
2018-06-22T00:36:00.265Z,88.54
2018-06-22T00:38:30.021Z,89.08
2018-06-22T00:40:59.673Z,89.84
2018-06-22T00:43:29.497Z,90.10
2018-06-22T00:45:59.159Z,89.13
2018-06-22T00:48:28.708Z,89.88
2018-06-22T00:50:58.325Z,90.00
2018-06-22T00:53:45.084Z,87.57
2018-06-22T00:56:14.705Z,88.56
2018-06-22T00:58:44.417Z,88.11
2018-06-22T01:01:14.071Z,88.29
2018-06-22T01:03:43.703Z,87.91
2018-06-22T01:06:13.295Z,89.20
2018-06-22T01:08:43.047Z,88.68
2018-06-22T01:11:12.700Z,88.83
2018-06-22T01:13:42.572Z,87.53
2018-06-22T01:16:12.178Z,87.41
2018-06-22T01:18:42.486Z,88.05
2018-06-22T01:21:12.190Z,87.63
2018-06-22T01:23:42.291Z,87.78
2018-06-22T01:26:11.877Z,88.25
2018-06-22T01:28:42.211Z,87.17
2018-06-22T01:31:11.820Z,87.68
2018-06-22T01:33:41.950Z,86.65
2018-06-22T01:36:11.501Z,86.75
2018-06-22T01:38:41.671Z,86.78
2018-06-22T01:41:11.286Z,86.21
2018-06-22T01:43:41.059Z,87.55
2018-06-22T01:46:10.821Z,86.10
2018-06-22T01:48:40.416Z,85.46
2018-06-22T01:51:10.060Z,86.45
2018-06-22T01:53:39.662Z,86.60
2018-06-22T01:56:09.301Z,86.06
2018-06-22T01:58:38.895Z,87.26
2018-06-22T02:01:08.501Z,86.60
2018-06-22T02:03:38.094Z,86.29
2018-06-22T02:06:07.693Z,87.25
2018-06-22T02:08:37.280Z,86.79
2018-06-22T02:11:07.072Z,88.22
2018-06-22T02:13:36.629Z,87.70
2018-06-22T02:16:06.281Z,87.97
2018-06-22T02:18:35.847Z,87.23
2018-06-22T02:21:05.489Z,86.88
2018-06-22T02:23:35.824Z,87.38
2018-06-22T02:26:05.387Z,87.46
2018-06-22T02:28:35.248Z,86.49
2018-06-22T02:31:04.843Z,87.43
2018-06-22T02:33:34.376Z,86.23
2018-06-22T02:36:04.025Z,85.61
2018-06-22T02:38:33.628Z,86.65
2018-06-22T02:41:05.392Z,86.96
2018-06-22T02:43:35.818Z,87.88
2018-06-22T02:46:05.547Z,86.80
2018-06-22T02:48:35.193Z,86.98
2018-06-22T02:51:04.744Z,86.07
2018-06-22T02:53:34.343Z,86.57
2018-06-22T02:56:04.015Z,87.96
2018-06-22T02:58:33.572Z,87.30
2018-06-22T03:01:03.150Z,87.39
2018-06-22T03:03:32.679Z,88.71
2018-06-22T03:06:02.295Z,88.68
2018-06-22T03:08:31.943Z,91.55
2018-06-22T03:11:01.579Z,91.67
2018-06-22T03:13:31.154Z,91.12
2018-06-22T03:16:00.779Z,92.06
2018-06-22T03:18:30.641Z,95.50
2018-06-22T03:21:00.191Z,93.24
2018-06-22T03:23:29.788Z,94.29
2018-06-22T03:25:59.363Z,94.20
2018-06-22T03:28:29.019Z,94.59
2018-06-22T03:30:58.586Z,94.84
2018-06-22T03:33:28.195Z,94.46
2018-06-22T03:35:57.773Z,93.70
2018-06-22T03:38:27.447Z,93.93
2018-06-22T03:40:57.050Z,94.06
2018-06-22T03:43:26.976Z,93.96
2018-06-22T03:45:56.646Z,94.38
2018-06-22T03:48:26.382Z,94.72
2018-06-22T03:50:55.960Z,95.02
2018-06-22T03:53:25.557Z,94.46
2018-06-22T03:55:55.599Z,93.64
2018-06-22T03:58:25.139Z,95.57
2018-06-22T04:00:55.041Z,96.03
2018-06-22T04:03:24.770Z,95.09
2018-06-22T04:05:54.893Z,93.40
2018-06-22T04:08:24.849Z,94.06
2018-06-22T04:10:54.896Z,94.40
2018-06-22T04:13:24.483Z,95.20
2018-06-22T04:15:54.473Z,95.55
2018-06-22T04:18:24.064Z,96.36
2018-06-22T04:20:53.866Z,96.48
2018-06-22T04:23:23.446Z,97.04
2018-06-22T04:25:53.060Z,96.03
2018-06-22T04:28:22.637Z,97.45
2018-06-22T04:30:52.236Z,96.88
2018-06-22T04:33:21.852Z,97.96
2018-06-22T04:35:51.088Z,98.26
2018-06-22T04:38:20.669Z,97.34
2018-06-22T04:40:50.306Z,96.99
2018-06-22T04:43:20.018Z,96.13
2018-06-22T04:45:49.704Z,96.94
2018-06-22T04:48:19.337Z,97.38
2018-06-22T04:50:48.990Z,96.84
2018-06-22T04:53:18.633Z,96.82
2018-06-22T04:55:48.240Z,97.85
2018-06-22T04:58:17.860Z,97.31
2018-06-22T05:00:47.586Z,97.46
2018-06-22T05:03:17.140Z,98.11
2018-06-22T05:05:46.707Z,97.88
2018-06-22T05:08:22.877Z,96.16
2018-06-22T05:10:52.425Z,97.84
2018-06-22T05:13:22.009Z,98.30
2018-06-22T05:15:51.657Z,97.58
2018-06-22T05:18:21.289Z,97.15
2018-06-22T05:20:51.144Z,96.77
2018-06-22T05:23:20.780Z,97.67
2018-06-22T05:25:50.355Z,97.14
2018-06-22T05:28:20.033Z,95.75
2018-06-22T05:30:49.607Z,97.42
2018-06-22T05:33:19.178Z,96.74
2018-06-22T05:35:48.827Z,96.92
2018-06-22T05:38:18.121Z,96.50
2018-06-22T05:40:47.730Z,93.98
2018-06-22T05:43:17.341Z,94.66
2018-06-22T05:45:46.908Z,95.71
2018-06-22T05:48:16.495Z,93.85
2018-06-22T05:50:46.294Z,95.69
2018-06-22T05:53:15.902Z,95.70
2018-06-22T05:55:45.524Z,93.72
2018-06-22T05:58:15.261Z,94.57
2018-06-22T06:00:44.813Z,96.21
2018-06-22T06:03:14.463Z,95.49
2018-06-22T06:05:44.124Z,93.44
2018-06-22T06:08:14.300Z,94.38
2018-06-22T06:10:43.935Z,94.16
2018-06-22T06:13:13.550Z,95.89
2018-06-22T06:15:43.301Z,96.83
2018-06-22T06:18:12.915Z,95.12
2018-06-22T06:20:42.560Z,95.29
2018-06-22T06:23:12.168Z,93.94
2018-06-22T06:25:42.077Z,93.34
2018-06-22T06:28:11.779Z,93.83
2018-06-22T06:30:41.444Z,92.81
2018-06-22T06:33:10.988Z,92.81
2018-06-22T06:35:40.822Z,92.47
2018-06-22T06:38:10.509Z,92.81
2018-06-22T06:40:40.718Z,93.64
2018-06-22T06:43:10.500Z,92.73
2018-06-22T06:45:40.104Z,92.88
2018-06-22T06:48:10.151Z,93.16
2018-06-22T06:50:39.849Z,93.59
2018-06-22T06:53:09.749Z,94.38
2018-06-22T06:55:39.342Z,94.29
2018-06-22T06:58:09.174Z,93.98
2018-06-22T07:00:39.083Z,93.87
2018-06-22T07:03:09.217Z,92.98
2018-06-22T07:05:38.830Z,88.04
2018-06-22T07:08:08.764Z,85.13
2018-06-22T07:10:38.401Z,87.73
2018-06-22T07:13:08.151Z,85.35
2018-06-22T07:15:40.109Z,78.28
2018-06-22T07:18:10.593Z,86.12
2018-06-22T07:20:40.350Z,87.64
2018-06-22T07:23:10.384Z,88.04
2018-06-22T07:25:39.985Z,87.76
2018-06-22T07:28:10.051Z,88.43
2018-06-22T07:30:39.652Z,85.96
2018-06-22T07:33:09.218Z,83.89
2018-06-22T07:35:38.806Z,84.66
2018-06-22T07:38:08.428Z,83.10
2018-06-22T07:40:37.985Z,79.08
2018-06-22T07:43:07.582Z,80.61
2018-06-22T07:45:37.234Z,81.96
2018-06-22T07:48:06.902Z,85.64
2018-06-22T07:50:36.520Z,87.06
2018-06-22T07:53:06.258Z,88.11
2018-06-22T07:55:35.941Z,86.82
2018-06-22T07:58:05.592Z,83.32
2018-06-22T08:00:35.308Z,85.41
2018-06-22T08:03:05.033Z,83.95
2018-06-22T08:05:34.737Z,83.86
2018-06-22T08:08:04.460Z,85.06
2018-06-22T08:10:34.111Z,82.85
2018-06-22T08:13:03.915Z,81.09
2018-06-22T08:15:33.713Z,76.20
2018-06-22T08:18:03.516Z,79.14
2018-06-22T08:20:33.234Z,79.90
2018-06-22T08:23:02.915Z,79.48
2018-06-22T08:25:32.571Z,69.80
2018-06-22T08:28:02.192Z,73.61
2018-06-22T08:30:31.837Z,76.74
2018-06-22T08:33:01.499Z,77.26
2018-06-22T08:35:31.153Z,74.64
2018-06-22T08:38:00.920Z,76.70
2018-06-22T08:40:30.634Z,72.27
2018-06-22T08:43:00.584Z,74.84
2018-06-22T08:45:30.047Z,74.55
2018-06-22T08:47:59.757Z,70.28
2018-06-22T08:50:29.441Z,65.56
2018-06-22T08:52:59.229Z,63.13
2018-06-22T08:55:29.182Z,70.68
2018-06-22T08:57:58.908Z,67.30
2018-06-22T09:00:28.590Z,61.14
2018-06-22T09:02:58.248Z,67.62
2018-06-22T09:05:27.909Z,73.64
2018-06-22T09:07:57.559Z,66.68
2018-06-22T09:10:27.203Z,64.37
2018-06-22T09:12:57.015Z,61.48
2018-06-22T09:15:26.544Z,100.00
2018-06-22T09:55:11.802Z,100.00
